createdAt,value
2023-05-02T00:00:40.828Z,40.78
2023-05-02T00:03:18.801Z,40.70
2023-05-02T00:05:49.651Z,40.68
2023-05-02T00:08:20.204Z,41.02
2023-05-02T00:10:50.709Z,40.85
2023-05-02T00:13:21.198Z,41.04
2023-05-02T00:15:51.740Z,41.26
2023-05-02T00:18:22.339Z,41.15
2023-05-02T00:20:52.938Z,40.80
2023-05-02T00:23:24.038Z,41.07
2023-05-02T00:25:54.601Z,40.99
2023-05-02T00:28:26.685Z,40.95
2023-05-02T00:30:57.307Z,40.94
2023-05-02T00:33:27.907Z,41.67
2023-05-02T00:35:58.737Z,41.64
2023-05-02T00:38:29.321Z,41.47
2023-05-02T00:40:59.931Z,41.33
2023-05-02T00:43:33.046Z,41.44
2023-05-02T00:46:03.803Z,41.37
2023-05-02T00:48:34.728Z,41.60
2023-05-02T00:51:06.558Z,41.70
2023-05-02T00:53:37.869Z,41.35
2023-05-02T00:56:09.063Z,41.38
2023-05-02T00:58:40.062Z,41.29
2023-05-02T01:01:27.968Z,41.38
2023-05-02T01:04:05.766Z,41.69
2023-05-02T01:06:41.529Z,41.77
2023-05-02T01:09:19.475Z,41.84
2023-05-02T01:11:53.855Z,41.68
2023-05-02T01:14:25.602Z,41.58
2023-05-02T01:16:58.334Z,41.71
2023-05-02T01:19:32.715Z,41.74
2023-05-02T01:22:04.692Z,41.67
2023-05-02T01:24:40.092Z,41.75
2023-05-02T01:27:17.138Z,41.94
2023-05-02T01:29:50.707Z,42.10
2023-05-02T01:32:23.388Z,41.99
2023-05-02T01:34:55.356Z,42.48
2023-05-02T01:37:27.304Z,42.09
2023-05-02T01:39:59.093Z,42.08
2023-05-02T01:42:30.623Z,41.97
2023-05-02T01:45:01.640Z,42.07
2023-05-02T01:47:34.722Z,42.17
2023-05-02T01:50:08.000Z,42.28
2023-05-02T01:52:39.752Z,42.13
2023-05-02T01:55:13.413Z,42.24
2023-05-02T01:57:45.194Z,42.21
2023-05-02T02:00:17.548Z,42.30
2023-05-02T02:02:50.110Z,42.50
2023-05-02T02:05:21.386Z,42.78
2023-05-02T02:07:52.051Z,42.33
2023-05-02T02:10:23.832Z,42.61
2023-05-02T02:13:00.191Z,42.59
2023-05-02T02:15:33.648Z,42.63
2023-05-02T02:18:09.341Z,42.60
2023-05-02T02:20:41.858Z,42.65
2023-05-02T02:23:13.298Z,42.46
2023-05-02T02:25:44.917Z,42.59
2023-05-02T02:28:15.424Z,42.72
2023-05-02T02:30:46.012Z,42.57
2023-05-02T02:33:16.536Z,42.65
2023-05-02T02:36:00.983Z,42.73
2023-05-02T02:38:39.291Z,42.83
2023-05-02T02:41:13.696Z,42.79
2023-05-02T02:43:49.319Z,42.84
2023-05-02T02:46:27.498Z,42.95
2023-05-02T02:49:03.356Z,43.02
2023-05-02T02:51:39.696Z,42.96
2023-05-02T02:54:25.773Z,43.24
2023-05-02T02:57:02.855Z,43.18
2023-05-02T02:59:35.283Z,43.67
2023-05-02T03:02:08.496Z,43.44
2023-05-02T03:04:40.075Z,43.45
2023-05-02T03:07:10.716Z,43.52
2023-05-02T03:09:46.010Z,43.37
2023-05-02T03:12:19.160Z,43.45
2023-05-02T03:14:49.716Z,43.50
2023-05-02T03:17:21.051Z,43.67
2023-05-02T03:19:51.569Z,43.72
2023-05-02T03:22:22.704Z,43.55
2023-05-02T03:24:53.954Z,43.51
2023-05-02T03:27:24.559Z,43.44
2023-05-02T03:29:56.108Z,43.54
2023-05-02T03:32:27.974Z,43.84
2023-05-02T03:34:59.523Z,43.92
2023-05-02T03:37:31.875Z,43.77
2023-05-02T03:40:03.851Z,43.82
2023-05-02T03:42:40.051Z,43.91
2023-05-02T03:45:12.084Z,44.00
2023-05-02T03:47:42.804Z,44.63
2023-05-02T03:50:13.587Z,44.32
2023-05-02T03:52:44.753Z,44.31
2023-05-02T03:55:16.999Z,43.98
2023-05-02T03:57:47.936Z,44.37
2023-05-02T04:00:18.780Z,44.57
2023-05-02T04:02:53.372Z,44.22
2023-05-02T04:05:27.006Z,44.25
2023-05-02T04:07:57.931Z,44.59
2023-05-02T04:10:29.036Z,44.85
2023-05-02T04:13:03.232Z,44.56
2023-05-02T04:15:34.502Z,45.13
2023-05-02T04:18:05.475Z,44.69
2023-05-02T04:20:36.917Z,44.68
2023-05-02T04:23:08.172Z,44.92
2023-05-02T04:25:38.788Z,44.95
2023-05-02T04:28:09.557Z,45.21
2023-05-02T04:30:40.107Z,44.89
2023-05-02T04:33:14.146Z,45.37
2023-05-02T04:35:44.803Z,45.63
2023-05-02T04:38:17.796Z,45.07
2023-05-02T04:40:51.288Z,45.44
2023-05-02T04:43:25.010Z,45.48
2023-05-02T04:46:02.650Z,45.39
2023-05-02T04:48:37.386Z,45.50
2023-05-02T04:51:08.242Z,45.74
2023-05-02T04:53:39.068Z,45.34
2023-05-02T04:56:09.918Z,45.67
2023-05-02T04:58:41.638Z,45.84
2023-05-02T05:01:13.593Z,45.70
2023-05-02T05:03:44.717Z,45.72
2023-05-02T05:06:19.499Z,45.60
2023-05-02T05:08:50.726Z,45.72
2023-05-02T05:11:21.489Z,45.68
2023-05-02T05:13:52.010Z,46.04
2023-05-02T05:16:22.847Z,45.79
2023-05-02T05:18:54.729Z,45.95
2023-05-02T05:21:25.292Z,46.14
2023-05-02T05:23:55.900Z,46.29
2023-05-02T05:26:29.808Z,46.16
2023-05-02T05:29:00.901Z,46.04
2023-05-02T05:31:36.406Z,46.21
2023-05-02T05:34:07.427Z,46.18
2023-05-02T05:36:40.784Z,46.06
2023-05-02T05:39:11.494Z,46.37
2023-05-02T05:41:43.516Z,46.44
2023-05-02T05:44:15.600Z,46.25
2023-05-02T05:46:47.713Z,46.51
2023-05-02T05:49:18.637Z,46.81
2023-05-02T05:51:50.057Z,46.99
2023-05-02T05:54:21.678Z,47.08
2023-05-02T05:56:52.528Z,46.84
2023-05-02T05:59:23.934Z,46.90
2023-05-02T06:01:54.771Z,46.77
2023-05-02T06:04:27.093Z,47.03
2023-05-02T06:06:58.102Z,46.92
2023-05-02T06:09:29.113Z,47.23
2023-05-02T06:11:59.822Z,47.20
2023-05-02T06:14:31.000Z,47.72
2023-05-02T06:17:02.117Z,48.13
2023-05-02T06:19:32.709Z,47.83
2023-05-02T06:22:03.482Z,47.73
2023-05-02T06:24:34.295Z,48.32
2023-05-02T06:27:04.954Z,48.02
2023-05-02T06:29:35.498Z,48.73
2023-05-02T06:32:06.670Z,48.51
2023-05-02T06:34:37.410Z,48.71
2023-05-02T06:37:07.923Z,48.51
2023-05-02T06:39:38.554Z,48.62
2023-05-02T06:42:09.047Z,49.10
2023-05-02T06:44:39.636Z,48.78
2023-05-02T06:47:10.313Z,49.16
2023-05-02T06:49:41.010Z,49.41
2023-05-02T06:52:11.541Z,49.19
2023-05-02T06:54:42.538Z,49.16
2023-05-02T06:57:13.087Z,49.13
2023-05-02T06:59:43.618Z,49.48
2023-05-02T07:02:14.100Z,49.08
2023-05-02T07:04:44.716Z,49.15
2023-05-02T07:07:18.761Z,49.31
2023-05-02T07:09:49.977Z,49.08
2023-05-02T07:12:21.002Z,48.79
2023-05-02T07:14:51.510Z,49.07
2023-05-02T07:17:22.660Z,49.15
2023-05-02T07:19:53.500Z,49.13
2023-05-02T07:22:24.121Z,49.19
2023-05-02T07:25:00.289Z,48.99
2023-05-02T07:27:30.828Z,49.00
2023-05-02T07:30:01.748Z,49.27
2023-05-02T07:32:33.222Z,49.19
2023-05-02T07:35:03.904Z,49.39
2023-05-02T07:37:35.459Z,49.71
2023-05-02T07:40:08.025Z,49.81
2023-05-02T07:42:38.669Z,49.54
2023-05-02T07:45:11.079Z,49.47
2023-05-02T07:47:42.028Z,49.68
2023-05-02T07:50:13.979Z,50.08
2023-05-02T07:52:44.555Z,50.02
2023-05-02T07:55:15.391Z,50.29
2023-05-02T07:57:46.050Z,49.62
2023-05-02T08:00:18.523Z,49.55
2023-05-02T08:02:49.107Z,49.54
2023-05-02T08:05:19.749Z,49.43
2023-05-02T08:07:50.315Z,49.56
2023-05-02T08:10:24.249Z,49.48
2023-05-02T08:12:55.295Z,49.45
2023-05-02T08:15:26.056Z,49.57
2023-05-02T08:17:56.573Z,49.57
2023-05-02T08:20:27.177Z,50.00
2023-05-02T08:22:59.883Z,49.93
2023-05-02T08:25:31.148Z,49.84
2023-05-02T08:28:01.719Z,50.02
2023-05-02T08:30:32.592Z,49.85
2023-05-02T08:33:03.199Z,49.70
2023-05-02T08:35:33.800Z,50.14
2023-05-02T08:38:04.302Z,50.28
2023-05-02T08:40:42.102Z,50.05
2023-05-02T08:43:14.328Z,50.03
2023-05-02T08:45:45.587Z,50.32
2023-05-02T08:48:17.956Z,50.25
2023-05-02T08:50:49.799Z,50.35
2023-05-02T08:53:20.692Z,50.23
2023-05-02T08:55:51.663Z,50.11
2023-05-02T08:58:22.163Z,51.09
2023-05-02T09:00:53.705Z,50.53
2023-05-02T09:03:29.317Z,50.55
2023-05-02T09:06:05.726Z,50.66
2023-05-02T09:08:36.385Z,50.30
2023-05-02T09:11:07.653Z,50.26
2023-05-02T09:13:39.317Z,50.43
2023-05-02T09:16:10.847Z,50.46
2023-05-02T09:18:42.236Z,50.61
2023-05-02T09:21:13.603Z,50.38
2023-05-02T09:23:46.269Z,50.62
2023-05-02T09:26:18.262Z,50.16
2023-05-02T09:28:49.709Z,50.08
2023-05-02T09:31:43.855Z,50.15
2023-05-02T09:34:12.849Z,50.10
2023-05-02T09:36:44.574Z,50.19
2023-05-02T09:39:16.540Z,50.19
2023-05-02T09:41:48.093Z,50.47
2023-05-02T09:44:19.762Z,50.45
2023-05-02T09:46:50.830Z,50.34
2023-05-02T09:49:39.685Z,50.59
2023-05-02T09:52:13.579Z,50.47
2023-05-02T09:54:44.549Z,50.77
2023-05-02T09:57:15.278Z,50.59
2023-05-02T09:59:58.206Z,50.88
2023-05-02T10:02:31.586Z,50.93
2023-05-02T10:05:03.391Z,51.09
2023-05-02T10:07:34.760Z,50.73
2023-05-02T10:10:05.593Z,51.10
2023-05-02T10:12:36.170Z,50.66
2023-05-02T10:15:09.541Z,50.85
2023-05-02T10:17:43.295Z,50.93
2023-05-02T10:20:17.201Z,51.30
2023-05-02T10:22:48.864Z,51.34
2023-05-02T10:25:19.858Z,51.44
2023-05-02T10:27:51.554Z,51.78
2023-05-02T10:30:22.321Z,52.03
2023-05-02T10:32:53.459Z,51.29
2023-05-02T10:35:24.369Z,51.29
2023-05-02T10:37:55.322Z,50.99
2023-05-02T10:40:26.025Z,51.10
2023-05-02T10:42:56.981Z,50.69
2023-05-02T10:45:34.442Z,50.56
2023-05-02T10:48:17.801Z,50.47
2023-05-02T10:50:51.187Z,50.49
2023-05-02T10:53:28.647Z,50.37
2023-05-02T10:56:18.861Z,49.95
2023-05-02T10:58:50.339Z,50.01
2023-05-02T11:01:38.214Z,49.85
2023-05-02T11:04:09.750Z,49.42
2023-05-02T11:07:00.578Z,49.38
2023-05-02T11:09:35.400Z,49.02
2023-05-02T11:12:06.561Z,48.87
2023-05-02T11:14:52.667Z,48.37
2023-05-02T11:17:23.537Z,48.16
2023-05-02T11:20:28.520Z,48.17
2023-05-02T11:22:59.945Z,47.71
2023-05-02T11:25:41.808Z,47.56
2023-05-02T11:28:39.583Z,47.38
2023-05-02T11:31:11.001Z,46.94
2023-05-02T11:33:41.486Z,45.77
2023-05-02T11:36:12.189Z,46.09
2023-05-02T11:38:42.704Z,46.43
2023-05-02T11:41:13.703Z,45.89
2023-05-02T11:43:44.208Z,46.52
2023-05-02T11:46:14.999Z,46.24
2023-05-02T11:48:45.712Z,45.90
2023-05-02T11:51:24.252Z,45.42
2023-05-02T11:53:54.824Z,45.31
2023-05-02T11:56:26.678Z,45.34
2023-05-02T11:59:01.200Z,45.38
2023-05-02T12:01:32.039Z,45.25
2023-05-02T12:04:07.301Z,45.56
2023-05-02T12:06:38.276Z,45.72
2023-05-02T12:09:09.517Z,45.35
2023-05-02T12:11:40.195Z,45.39
2023-05-02T12:14:11.167Z,44.81
2023-05-02T12:16:42.778Z,44.58
2023-05-02T12:19:14.481Z,44.34
2023-05-02T12:21:45.136Z,44.88
2023-05-02T12:24:15.933Z,44.76
2023-05-02T12:26:46.480Z,44.76
2023-05-02T12:29:17.156Z,45.13
2023-05-02T12:31:53.512Z,44.98
2023-05-02T12:34:34.856Z,45.01
2023-05-02T12:37:05.714Z,45.26
2023-05-02T12:39:39.858Z,45.76
2023-05-02T12:42:14.288Z,45.45
2023-05-02T12:44:46.525Z,45.66
2023-05-02T12:47:18.093Z,45.65
2023-05-02T12:49:52.580Z,45.71
2023-05-02T12:52:43.180Z,45.70
2023-05-02T12:55:20.491Z,45.81
2023-05-02T12:57:51.370Z,45.69
2023-05-02T13:00:22.198Z,45.84
2023-05-02T13:02:53.080Z,45.49
2023-05-02T13:05:23.947Z,45.18
2023-05-02T13:07:56.633Z,45.31
2023-05-02T13:10:27.414Z,44.94
2023-05-02T13:12:57.973Z,45.10
2023-05-02T13:15:28.687Z,44.97
2023-05-02T13:17:59.588Z,44.06
2023-05-02T13:20:30.215Z,44.32
2023-05-02T13:23:00.724Z,44.60
2023-05-02T13:25:31.253Z,44.65
2023-05-02T13:28:01.747Z,44.68
2023-05-02T13:30:32.253Z,44.69
2023-05-02T13:33:02.837Z,44.51
2023-05-02T13:35:34.759Z,44.60
2023-05-02T13:38:06.334Z,44.34
2023-05-02T13:40:36.911Z,44.47
2023-05-02T13:43:07.515Z,44.91
2023-05-02T13:45:38.150Z,44.55
2023-05-02T13:48:09.025Z,44.95
2023-05-02T13:50:39.626Z,44.77
2023-05-02T13:53:10.210Z,44.81
2023-05-02T13:55:40.959Z,44.31
2023-05-02T13:58:11.532Z,44.75
2023-05-02T14:00:42.018Z,44.49
2023-05-02T14:03:13.623Z,44.65
2023-05-02T14:05:44.836Z,44.59
2023-05-02T14:08:18.578Z,44.60
2023-05-02T14:10:49.193Z,44.38
2023-05-02T14:13:19.928Z,44.55
2023-05-02T14:15:50.451Z,44.67
2023-05-02T14:18:21.036Z,44.67
2023-05-02T14:23:28.458Z,45.00
2023-05-02T14:25:59.031Z,45.00
2023-05-02T14:28:29.552Z,45.15
2023-05-02T14:31:00.052Z,45.10
2023-05-02T14:33:30.659Z,44.99
2023-05-02T14:36:01.140Z,45.30
2023-05-02T14:38:31.755Z,45.19
2023-05-02T14:41:03.376Z,45.06
2023-05-02T14:43:34.134Z,45.22
2023-05-02T14:46:04.782Z,45.08
2023-05-02T14:48:35.273Z,45.21
2023-05-02T14:51:06.703Z,45.29
2023-05-02T14:53:37.657Z,45.35
2023-05-02T14:56:12.873Z,45.45
2023-05-02T14:58:43.400Z,45.48
2023-05-02T15:01:20.809Z,45.60
2023-05-02T15:04:06.050Z,45.72
2023-05-02T15:06:38.321Z,45.64
2023-05-02T15:09:08.881Z,45.68
2023-05-02T15:11:39.367Z,45.98
2023-05-02T15:14:09.908Z,46.02
2023-05-02T15:16:40.624Z,46.52
2023-05-02T15:19:11.545Z,46.29
2023-05-02T15:21:41.985Z,46.46
2023-05-02T15:24:12.659Z,46.78
2023-05-02T15:26:43.227Z,46.83
2023-05-02T15:29:13.762Z,46.93
2023-05-02T15:31:44.465Z,47.09
2023-05-02T15:34:15.245Z,47.18
2023-05-02T15:36:45.740Z,47.17
2023-05-02T15:39:16.344Z,47.24
2023-05-02T15:41:48.022Z,47.11
2023-05-02T15:44:18.598Z,47.26
2023-05-02T15:46:49.584Z,47.12
2023-05-02T15:49:20.303Z,47.28
2023-05-02T15:51:50.981Z,47.38
2023-05-02T15:54:21.513Z,47.34
2023-05-02T15:56:52.058Z,47.73
2023-05-02T15:59:22.568Z,47.92
2023-05-02T16:01:53.120Z,48.66
2023-05-02T16:04:25.314Z,48.15
2023-05-02T16:06:56.029Z,48.11
2023-05-02T16:09:26.913Z,48.22
2023-05-02T16:11:57.445Z,47.92
2023-05-02T16:14:29.088Z,48.13
2023-05-02T16:16:59.800Z,49.78
2023-05-02T16:19:30.876Z,48.27
2023-05-02T16:22:01.680Z,48.42
2023-05-02T16:24:32.319Z,48.71
2023-05-02T16:27:02.849Z,48.56
2023-05-02T16:29:33.647Z,49.55
2023-05-02T16:32:04.532Z,48.75
2023-05-02T16:34:35.085Z,49.38
2023-05-02T16:37:05.931Z,49.19
2023-05-02T16:39:36.588Z,49.01
2023-05-02T16:42:07.606Z,49.21
2023-05-02T16:44:38.129Z,49.64
2023-05-02T16:47:09.907Z,49.50
2023-05-02T16:49:40.564Z,51.65
2023-05-02T16:52:11.250Z,51.73
2023-05-02T16:54:41.840Z,51.41
2023-05-02T16:57:15.522Z,51.02
2023-05-02T16:59:46.317Z,52.40
2023-05-02T17:02:17.170Z,51.25
2023-05-02T17:04:47.941Z,51.85
2023-05-02T17:07:18.643Z,51.55
2023-05-02T17:09:49.132Z,51.21
2023-05-02T17:12:22.701Z,51.37
2023-05-02T17:14:53.305Z,51.15
2023-05-02T17:17:23.998Z,50.49
2023-05-02T17:19:54.605Z,50.67
2023-05-02T17:22:25.267Z,51.60
2023-05-02T17:24:56.398Z,52.29
2023-05-02T17:27:27.384Z,52.93
2023-05-02T17:29:57.996Z,51.78
2023-05-02T17:32:28.578Z,53.17
2023-05-02T17:34:59.139Z,51.50
2023-05-02T17:37:30.234Z,50.97
2023-05-02T17:40:02.432Z,51.52
2023-05-02T17:42:33.132Z,50.91
2023-05-02T17:45:04.391Z,50.94
2023-05-02T17:47:34.986Z,50.81
2023-05-02T17:50:06.103Z,51.34
2023-05-02T17:52:36.870Z,51.61
2023-05-02T17:55:08.905Z,51.38
2023-05-02T17:57:39.397Z,52.92
2023-05-02T18:00:11.904Z,51.40
2023-05-02T18:02:42.623Z,52.07
2023-05-02T18:05:13.353Z,52.13
2023-05-02T18:07:43.876Z,52.11
2023-05-02T18:10:14.608Z,51.97
2023-05-02T18:12:45.133Z,52.54
2023-05-02T18:15:15.923Z,51.74
2023-05-02T18:17:46.506Z,51.73
2023-05-02T18:20:17.289Z,51.97
2023-05-02T18:22:47.993Z,51.68
2023-05-02T18:25:18.739Z,51.51
2023-05-02T18:27:49.313Z,51.43
2023-05-02T18:30:20.543Z,51.30
2023-05-02T18:32:51.138Z,51.17
2023-05-02T18:35:21.816Z,51.48
2023-05-02T18:37:52.567Z,51.66
2023-05-02T18:40:23.486Z,51.42
2023-05-02T18:42:54.050Z,51.33
2023-05-02T18:45:24.689Z,51.35
2023-05-02T18:47:55.355Z,52.09
2023-05-02T18:50:26.461Z,51.66
2023-05-02T18:52:56.915Z,51.44
2023-05-02T18:55:27.526Z,52.33
2023-05-02T18:57:58.005Z,51.92
2023-05-02T19:00:31.495Z,51.61
2023-05-02T19:03:03.000Z,51.79
2023-05-02T19:05:34.933Z,51.90
2023-05-02T19:08:06.430Z,51.66
2023-05-02T19:10:37.088Z,51.43
2023-05-02T19:13:07.617Z,51.24
2023-05-02T19:15:38.355Z,51.36
2023-05-02T19:18:09.049Z,52.00
2023-05-02T19:20:39.836Z,51.92
2023-05-02T19:23:19.522Z,51.60
2023-05-02T19:25:51.101Z,51.71
2023-05-02T19:28:22.999Z,51.52
2023-05-02T19:30:54.824Z,51.60
2023-05-02T19:33:25.382Z,52.24
2023-05-02T19:35:56.532Z,51.65
2023-05-02T19:38:26.983Z,52.12
2023-05-02T19:40:57.522Z,51.74
2023-05-02T19:43:28.046Z,51.68
2023-05-02T19:45:58.977Z,51.59
2023-05-02T19:48:29.565Z,51.70
2023-05-02T19:51:02.279Z,51.81
2023-05-02T19:53:33.291Z,51.63
2023-05-02T19:56:04.862Z,51.70
2023-05-02T19:58:35.639Z,51.67
2023-05-02T20:01:06.207Z,51.69
2023-05-02T20:03:36.928Z,51.71
2023-05-02T20:06:07.602Z,51.80
2023-05-02T20:08:38.142Z,51.72
2023-05-02T20:11:08.673Z,51.84
2023-05-02T20:13:39.466Z,51.91
2023-05-02T20:16:10.721Z,51.96
2023-05-02T20:18:41.556Z,51.76
2023-05-02T20:21:12.106Z,51.89
2023-05-02T20:23:43.665Z,51.86
2023-05-02T20:26:16.467Z,51.98
2023-05-02T20:28:47.026Z,51.93
2023-05-02T20:31:17.677Z,52.01
2023-05-02T20:33:48.200Z,52.02
2023-05-02T20:36:19.063Z,51.91
2023-05-02T20:38:49.570Z,51.97
2023-05-02T20:41:20.395Z,51.98
2023-05-02T20:43:51.774Z,52.42
2023-05-02T20:46:22.856Z,52.27
2023-05-02T20:48:53.734Z,52.24
2023-05-02T20:51:24.333Z,52.20
2023-05-02T20:53:54.825Z,52.17
2023-05-02T20:56:26.248Z,52.31
2023-05-02T20:58:56.991Z,52.07
2023-05-02T21:01:27.978Z,52.31
2023-05-02T21:03:58.525Z,52.20
2023-05-02T21:06:29.144Z,52.12
2023-05-02T21:09:01.391Z,52.28
2023-05-02T21:11:32.029Z,52.17
2023-05-02T21:14:02.585Z,52.35
2023-05-02T21:16:33.196Z,52.41
2023-05-02T21:19:04.132Z,52.31
2023-05-02T21:21:34.652Z,52.34
2023-05-02T21:24:05.430Z,52.24
2023-05-02T21:26:35.991Z,52.27
2023-05-02T21:29:06.953Z,52.30
2023-05-02T21:31:39.234Z,52.45
2023-05-02T21:34:09.951Z,52.50
2023-05-02T21:36:42.183Z,52.54
2023-05-02T21:39:12.740Z,52.55
2023-05-02T21:41:43.456Z,52.51
2023-05-02T21:44:14.454Z,52.46
2023-05-02T21:46:47.157Z,52.39
2023-05-02T21:49:17.827Z,52.55
2023-05-02T21:51:48.352Z,52.40
2023-05-02T21:54:18.881Z,52.49
2023-05-02T21:56:49.476Z,52.52
2023-05-02T21:59:20.058Z,52.71
2023-05-02T22:01:50.864Z,52.52
2023-05-02T22:04:21.431Z,52.40
2023-05-02T22:06:52.999Z,52.61
2023-05-02T22:09:23.790Z,52.64
2023-05-02T22:11:54.650Z,52.43
2023-05-02T22:14:33.735Z,52.53
2023-05-02T22:17:12.319Z,52.58
2023-05-02T22:19:42.981Z,52.32
2023-05-02T22:22:13.666Z,52.39
2023-05-02T22:24:44.245Z,52.20
2023-05-02T22:27:14.921Z,52.37
2023-05-02T22:29:45.573Z,52.27
2023-05-02T22:32:16.212Z,52.24
2023-05-02T22:34:46.821Z,52.25
2023-05-02T22:37:17.442Z,52.24
2023-05-02T22:39:47.992Z,52.33
2023-05-02T22:42:18.497Z,52.31
2023-05-02T22:44:54.331Z,52.22
2023-05-02T22:47:25.288Z,52.35
2023-05-02T22:49:56.920Z,52.32
2023-05-02T22:52:28.437Z,52.33
2023-05-02T22:54:59.146Z,52.33
2023-05-02T22:57:29.832Z,52.32
2023-05-02T23:00:00.514Z,52.39
2023-05-02T23:02:31.482Z,52.31
2023-05-02T23:05:02.601Z,52.27
2023-05-02T23:07:33.276Z,52.38
2023-05-02T23:10:04.199Z,52.40
2023-05-02T23:12:35.076Z,52.45
2023-05-02T23:15:06.588Z,52.42
2023-05-02T23:17:39.872Z,52.41
2023-05-02T23:20:11.696Z,52.54
2023-05-02T23:22:46.433Z,52.36
2023-05-02T23:25:17.019Z,52.48
2023-05-02T23:27:47.631Z,52.45
2023-05-02T23:30:18.083Z,52.31
2023-05-02T23:32:48.674Z,52.50
2023-05-02T23:35:19.506Z,52.46
2023-05-02T23:37:50.460Z,52.41
2023-05-02T23:40:21.147Z,52.49
2023-05-02T23:42:51.857Z,52.52
2023-05-02T23:45:22.409Z,52.48
2023-05-02T23:47:53.006Z,52.60
2023-05-02T23:50:23.921Z,52.50
2023-05-02T23:52:54.638Z,52.53
2023-05-02T23:55:25.265Z,52.68
2023-05-02T23:57:55.819Z,52.69
